Time;durP1;ratioP1;P1;durP2;ratioP2;P2;SDS_P1;SDS_P2;PMS_P1;PMS_P2;Temp;Humidity;BMP_temperature;BMP_pressure;BME280_temperature;BME280_humidity;BME280_pressure;Samples;Min_cycle;Max_cycle;Signal;HPM_P1;HPM_P2
2021/05/25 00:00:07;;;;;;;3.63;2.13;;;;;;;14.14;84.79;99942.09;5055608;28;20044;-77
2021/05/25 00:02:40;;;;;;;4.20;2.50;;;;;;;14.19;84.17;99968.56;5054698;28;20409;-77
2021/05/25 00:05:11;;;;;;;5.55;2.50;;;;;;;14.25;83.65;99993.06;5055401;28;20301;-79
2021/05/25 00:07:39;;;;;;;3.85;2.10;;;;;;;14.39;84.05;99993.81;5055807;28;20049;-77
2021/05/25 00:10:09;;;;;;;4.57;2.35;;;;;;;14.31;84.11;99986.34;5055223;28;20103;-78
2021/05/25 00:12:37;;;;;;;3.78;2.05;;;;;;;14.35;83.05;99941.34;5055794;28;20052;-78
2021/05/25 00:15:07;;;;;;;4.35;2.20;;;;;;;14.40;83.29;99899.75;5053976;28;20061;-78
2021/05/25 00:17:35;;;;;;;5.43;2.15;;;;;;;14.24;84.60;99878.69;5055744;28;20041;-79
2021/05/25 00:20:07;;;;;;;3.65;2.22;;;;;;;14.23;84.61;99860.88;5055141;28;20045;-77
2021/05/25 00:22:35;;;;;;;5.57;2.22;;;;;;;14.30;83.53;99893.44;5055313;28;20099;-76
2021/05/25 00:25:06;;;;;;;3.47;2.13;;;;;;;14.33;82.82;99947.69;5054817;28;20045;-76
2021/05/25 00:27:34;;;;;;;5.53;2.50;;;;;;;14.25;85.70;99973.41;5056937;28;20111;-76
2021/05/25 00:30:02;;;;;;;5.00;2.83;;;;;;;14.10;86.58;99940.66;5056323;28;20099;-77
2021/05/25 00:32:30;;;;;;;4.35;2.72;;;;;;;14.14;86.30;99939.41;5055914;28;20116;-80
2021/05/25 00:34:58;;;;;;;4.25;2.95;;;;;;;13.95;87.47;99937.34;5055965;28;20082;-82
2021/05/25 00:37:27;;;;;;;5.13;3.17;;;;;;;13.82;89.23;99946.47;5055441;28;20049;-81
2021/05/25 00:39:55;;;;;;;5.72;3.33;;;;;;;13.80;89.53;99937.69;5060121;28;20059;-89
2021/05/25 00:42:23;;;;;;;6.85;3.22;;;;;;;13.59;90.97;99956.28;5060766;28;20076;-90
2021/05/25 00:44:51;;;;;;;5.15;3.20;;;;;;;13.43;92.01;99953.97;5055186;28;20386;-90
2021/05/25 00:47:28;;;;;;;6.97;3.03;;;;;;;13.40;93.41;99962.19;5058713;28;20151;-89
2021/05/25 00:50:09;;;;;;;5.10;3.20;;;;;;;13.44;92.41;99936.91;5069314;28;20045;-90
2021/05/25 00:52:40;;;;;;;4.30;3.20;;;;;;;13.42;92.24;99937.03;5055683;28;20049;-91
2021/05/25 00:55:11;;;;;;;6.93;3.60;;;;;;;13.43;92.14;99935.19;5055068;28;20049;-73
2021/05/25 00:57:43;;;;;;;5.82;3.60;;;;;;;13.38;92.74;99945.41;5054755;28;20380;-77
2021/05/25 01:00:12;;;;;;;7.07;3.25;;;;;;;13.67;90.73;99922.56;5054165;28;20406;-77
2021/05/25 01:02:41;;;;;;;6.57;3.50;;;;;;;13.42;91.72;99938.84;5054779;28;20448;-78
2021/05/25 01:05:12;;;;;;;6.00;3.17;;;;;;;13.36;92.40;99897.31;5054386;28;20041;-78
2021/05/25 01:07:42;;;;;;;6.13;3.60;;;;;;;13.46;92.11;99900.97;5054716;28;20090;-78
2021/05/25 01:10:12;;;;;;;6.60;4.03;;;;;;;13.25;93.50;99937.47;5054194;28;20470;-78
2021/05/25 01:12:50;;;;;;;6.35;3.80;;;;;;;13.26;94.28;99911.53;5054666;28;20068;-78
2021/05/25 01:15:19;;;;;;;6.88;3.67;;;;;;;13.33;93.33;99939.56;5054078;28;20051;-77
2021/05/25 01:17:47;;;;;;;7.78;3.53;;;;;;;13.36;93.80;99942.00;5054560;28;20060;-76
2021/05/25 01:20:16;;;;;;;5.95;3.47;;;;;;;13.36;93.17;99933.94;5053962;28;20048;-77
2021/05/25 01:22:44;;;;;;;6.45;3.70;;;;;;;13.43;92.96;99948.59;5054212;28;20037;-77
2021/05/25 01:25:15;;;;;;;5.07;3.60;;;;;;;13.42;93.11;99954.94;5053597;28;20482;-75
2021/05/25 01:27:49;;;;;;;5.93;3.63;;;;;;;13.36;93.41;99977.66;5053343;28;20486;-75
2021/05/25 01:30:19;;;;;;;5.00;3.22;;;;;;;13.35;94.04;99969.75;5053907;28;20049;-75
2021/05/25 01:32:47;;;;;;;5.97;4.07;;;;;;;13.56;91.19;99962.75;5053992;28;20056;-75
2021/05/25 01:35:15;;;;;;;7.38;4.20;;;;;;;13.67;90.44;99975.31;5053578;28;20049;-75
2021/05/25 01:37:43;;;;;;;6.50;4.10;;;;;;;13.60;90.60;99974.06;5053727;28;20047;-75
2021/05/25 01:40:12;;;;;;;6.07;3.90;;;;;;;13.55;91.43;99981.63;5053658;28;20080;-75
2021/05/25 01:42:40;;;;;;;5.15;3.65;;;;;;;13.48;91.93;99958.94;5053349;28;20049;-75
2021/05/25 01:45:13;;;;;;;6.63;3.92;;;;;;;13.52;92.70;99910.38;5053338;28;20047;-75
2021/05/25 01:47:41;;;;;;;7.38;4.60;;;;;;;13.46;93.02;99906.34;5053567;28;20049;-74
2021/05/25 01:50:12;;;;;;;6.93;4.47;;;;;;;13.41;93.78;99926.41;5053221;28;20033;-77
2021/05/25 01:52:56;;;;;;;7.35;4.25;;;;;;;13.40;92.94;99925.53;5054034;28;20052;-77
2021/05/25 01:55:27;;;;;;;6.18;4.10;;;;;;;13.51;93.40;99916.72;5053682;28;20383;-78
2021/05/25 01:57:55;;;;;;;7.75;4.30;;;;;;;13.39;94.43;99931.88;5053820;28;20069;-79
2021/05/25 02:00:24;;;;;;;6.65;4.43;;;;;;;13.26;94.96;99939.16;5053067;28;20045;-78
2021/05/25 02:02:51;;;;;;;6.80;4.25;;;;;;;13.36;95.90;99910.69;5053557;28;20041;-77
2021/05/25 02:05:19;;;;;;;7.18;4.68;;;;;;;13.45;94.32;99917.19;5053048;28;20049;-76
2021/05/25 02:07:49;;;;;;;6.68;4.80;;;;;;;13.35;96.38;99937.59;5053332;28;20049;-78
2021/05/25 02:10:40;;;;;;;7.32;4.43;;;;;;;13.34;97.24;99938.59;5053329;28;20547;-79
2021/05/25 02:13:10;;;;;;;7.75;4.80;;;;;;;13.26;97.25;99938.31;5050635;28;20075;-77
2021/05/25 02:15:40;;;;;;;6.55;3.95;;;;;;;13.18;97.98;99920.09;5053312;28;20045;-76
2021/05/25 02:18:10;;;;;;;7.07;4.10;;;;;;;13.22;96.85;99915.38;5053348;28;20064;-79
2021/05/25 02:20:39;;;;;;;6.03;4.32;;;;;;;13.25;96.91;99934.78;5053254;28;20098;-71
2021/05/25 02:23:07;;;;;;;9.50;4.88;;;;;;;13.14;98.67;99940.91;5053043;28;20040;-71
2021/05/25 02:25:36;;;;;;;7.57;4.93;;;;;;;13.11;99.55;99940.28;5052869;28;20125;-73
2021/05/25 02:28:07;;;;;;;6.93;4.82;;;;;;;13.14;100.00;99938.25;5052913;28;20394;-75
2021/05/25 02:30:36;;;;;;;6.38;4.65;;;;;;;12.99;99.64;99930.50;5053263;28;20041;-75
2021/05/25 02:33:07;;;;;;;7.28;4.80;;;;;;;13.11;98.17;99922.38;5053245;28;20045;-76
2021/05/25 02:35:35;;;;;;;6.75;4.65;;;;;;;13.03;98.61;99919.47;5052057;28;20056;-77
2021/05/25 02:38:03;;;;;;;7.35;4.75;;;;;;;13.18;98.47;99918.28;5053019;28;20045;-77
2021/05/25 02:40:32;;;;;;;6.93;5.05;;;;;;;13.13;98.21;99908.91;5052696;28;20501;-78
2021/05/25 02:43:00;;;;;;;7.40;4.75;;;;;;;13.11;97.85;99911.69;5052901;28;20407;-79
2021/05/25 02:45:29;;;;;;;6.57;4.70;;;;;;;12.99;98.96;99907.25;5052297;28;20041;-78
2021/05/25 02:47:57;;;;;;;7.18;5.00;;;;;;;12.86;100.00;99906.50;5052858;28;20044;-77
2021/05/25 02:50:25;;;;;;;7.82;5.20;;;;;;;13.03;100.00;99916.78;5052653;28;20059;-79
2021/05/25 02:52:54;;;;;;;7.65;5.00;;;;;;;12.99;100.00;99909.94;5052985;28;20045;-79
2021/05/25 02:55:24;;;;;;;7.28;5.22;;;;;;;12.89;100.00;99906.25;5051456;28;20049;-76
2021/05/25 02:57:52;;;;;;;9.45;6.03;;;;;;;12.80;100.00;99915.81;5052929;28;20045;-77
2021/05/25 03:00:22;;;;;;;6.75;5.20;;;;;;;12.75;100.00;99920.69;5052368;28;20132;-76
2021/05/25 03:02:51;;;;;;;6.60;5.43;;;;;;;12.78;100.00;99911.56;5052570;28;20044;-77
2021/05/25 03:05:22;;;;;;;7.43;5.90;;;;;;;12.76;100.00;99917.03;5052706;28;20545;-78
2021/05/25 03:07:51;;;;;;;9.27;6.28;;;;;;;12.84;100.00;99901.25;5051684;28;20060;-78
2021/05/25 03:10:21;;;;;;;8.40;6.22;;;;;;;12.81;100.00;99905.97;5052334;28;20131;-77
2021/05/25 03:12:49;;;;;;;9.85;6.32;;;;;;;12.78;100.00;99916.91;5056427;28;20385;-89
2021/05/25 03:15:19;;;;;;;9.32;5.65;;;;;;;12.93;100.00;99915.75;5056927;28;20051;-89
2021/05/25 03:17:47;;;;;;;7.15;5.72;;;;;;;13.00;99.56;99911.63;5054276;28;20051;-78
2021/05/25 03:20:17;;;;;;;8.93;5.53;;;;;;;12.96;99.33;99907.50;5052674;28;20132;-79
2021/05/25 03:22:45;;;;;;;8.25;5.47;;;;;;;12.95;99.47;99900.44;5052987;28;20060;-79
2021/05/25 03:25:15;;;;;;;9.07;5.50;;;;;;;12.75;100.00;99906.44;5052280;28;20498;-80
2021/05/25 03:27:44;;;;;;;7.20;5.25;;;;;;;12.83;100.00;99893.31;5052456;28;20044;-77
2021/05/25 03:30:14;;;;;;;9.00;5.30;;;;;;;12.80;100.00;99893.56;5052343;28;20041;-78
2021/05/25 03:32:43;;;;;;;7.40;5.45;;;;;;;12.84;100.00;99884.34;5051555;28;20127;-77
2021/05/25 03:35:13;;;;;;;7.63;5.43;;;;;;;12.95;100.00;99881.69;5052475;28;20106;-78
2021/05/25 03:37:42;;;;;;;8.55;4.90;;;;;;;13.04;99.95;99881.00;5052428;28;20099;-77
2021/05/25 03:40:13;;;;;;;7.75;5.10;;;;;;;13.00;99.81;99882.19;5052494;28;20094;-78
2021/05/25 03:42:45;;;;;;;7.03;4.80;;;;;;;12.76;100.00;99878.72;5052349;28;20095;-81
2021/05/25 03:45:14;;;;;;;9.05;5.22;;;;;;;12.92;100.00;99886.41;5052664;28;20129;-82
2021/05/25 03:47:42;;;;;;;7.93;4.75;;;;;;;12.91;100.00;99885.56;5057347;28;20044;-81
2021/05/25 03:50:12;;;;;;;6.40;4.35;;;;;;;13.00;100.00;99886.69;5062199;28;20049;-83
2021/05/25 03:52:43;;;;;;;6.50;4.93;;;;;;;13.14;99.22;99890.03;5057180;28;20048;-83
2021/05/25 03:55:19;;;;;;;7.15;4.47;;;;;;;13.47;97.52;99888.44;5058049;28;20037;-89
2021/05/25 04:00:33;;;;;;;9.20;4.80;;;;;;;14.08;94.08;99920.25;5058777;28;20048;-84
2021/05/25 04:03:01;;;;;;;6.70;4.85;;;;;;;14.29;94.67;99929.28;5055945;28;20060;-84
2021/05/25 04:05:31;;;;;;;7.07;4.68;;;;;;;15.12;89.35;99926.03;5055472;28;20067;-85
2021/05/25 04:08:00;;;;;;;6.18;4.43;;;;;;;16.02;84.36;99919.13;5055519;28;20037;-78
2021/05/25 04:10:28;;;;;;;7.90;4.22;;;;;;;16.85;79.67;99917.09;5055193;28;20052;-78
2021/05/25 04:12:56;;;;;;;5.93;3.80;;;;;;;16.70;78.36;99921.22;5055520;28;20040;-80
2021/05/25 04:15:24;;;;;;;7.15;3.83;;;;;;;16.54;78.97;99925.25;5055134;28;20072;-79
2021/05/25 04:17:53;;;;;;;5.75;3.78;;;;;;;17.04;77.17;99922.50;5055432;28;20044;-76
2021/05/25 04:20:22;;;;;;;6.13;3.80;;;;;;;17.58;75.21;99921.06;5055299;28;20076;-76
2021/05/25 04:22:50;;;;;;;6.60;3.90;;;;;;;17.89;73.24;99918.16;5055515;28;20098;-76
2021/05/25 04:25:19;;;;;;;6.50;3.70;;;;;;;17.73;72.55;99919.59;5055254;28;20037;-75
2021/05/25 04:27:47;;;;;;;7.05;3.50;;;;;;;18.10;72.19;99915.22;5055208;28;20049;-77
2021/05/25 04:30:16;;;;;;;5.88;3.75;;;;;;;17.21;75.43;99910.16;5055131;28;20040;-80
2021/05/25 04:32:43;;;;;;;6.75;3.65;;;;;;;17.67;74.64;99906.69;5055063;28;20143;-80
2021/05/25 04:35:12;;;;;;;6.50;3.33;;;;;;;18.28;71.27;99919.69;5055255;28;20041;-81
2021/05/25 04:37:40;;;;;;;6.03;3.60;;;;;;;19.11;69.11;99916.91;5054510;28;20103;-74
2021/05/25 04:40:08;;;;;;;5.28;3.03;;;;;;;19.56;67.27;99916.78;5054866;28;20049;-76
2021/05/25 04:42:38;;;;;;;4.93;3.13;;;;;;;19.90;65.12;99918.72;5054527;28;20053;-77
2021/05/25 04:45:08;;;;;;;5.45;3.40;;;;;;;20.35;63.14;99923.84;5053432;28;20549;-78
2021/05/25 04:47:36;;;;;;;5.90;3.22;;;;;;;20.11;65.09;99923.75;5054627;28;20462;-78
2021/05/25 04:50:05;;;;;;;9.95;3.60;;;;;;;20.48;63.66;99929.69;5054871;28;20379;-77
2021/05/25 04:52:33;;;;;;;6.50;3.05;;;;;;;20.97;61.11;99934.41;5054517;28;20506;-80
2021/05/25 04:55:04;;;;;;;8.48;3.60;;;;;;;21.44;60.48;99934.66;5054656;28;20045;-79
2021/05/25 04:57:32;;;;;;;4.03;2.80;;;;;;;21.53;58.98;99930.91;5054293;28;20041;-76
2021/05/25 05:00:01;;;;;;;4.80;3.10;;;;;;;21.08;59.49;99925.94;5054560;28;20048;-76
2021/05/25 05:02:30;;;;;;;6.43;2.90;;;;;;;21.12;59.48;99935.44;5053007;28;20056;-77
2021/05/25 05:04:58;;;;;;;6.57;3.13;;;;;;;20.88;60.01;99941.69;5054574;28;20053;-76
2021/05/25 05:07:26;;;;;;;5.22;3.22;;;;;;;20.31;63.27;99944.16;5054129;28;20048;-77
2021/05/25 05:09:54;;;;;;;6.18;3.13;;;;;;;19.91;63.18;99942.91;5054288;28;20099;-77
2021/05/25 05:12:22;;;;;;;8.23;3.20;;;;;;;19.39;65.24;99944.69;5053383;28;20098;-88
2021/05/25 05:14:50;;;;;;;4.05;2.70;;;;;;;19.35;66.47;99946.00;5054691;28;20041;-83
2021/05/25 05:17:23;;;;;;;4.43;3.00;;;;;;;20.08;63.47;99943.88;5054279;28;20041;-79
2021/05/25 05:19:51;;;;;;;4.57;2.75;;;;;;;20.73;61.21;99927.91;5054089;28;20470;-77
2021/05/25 05:22:19;;;;;;;5.65;3.40;;;;;;;20.51;61.37;99933.94;5054191;28;20120;-68
2021/05/25 05:24:50;;;;;;;7.65;3.30;;;;;;;21.45;59.63;99943.63;5053636;28;20069;-72
2021/05/25 05:27:18;;;;;;;6.85;3.15;;;;;;;20.16;61.83;99951.16;5050906;28;20051;-73
2021/05/25 05:29:46;;;;;;;7.93;3.20;;;;;;;19.23;66.49;99948.13;5053326;28;20040;-71
2021/05/25 05:32:13;;;;;;;6.53;3.20;;;;;;;19.49;66.29;99952.72;5053198;28;20403;-71
2021/05/25 05:34:42;;;;;;;4.07;2.80;;;;;;;20.85;60.86;99947.44;5052952;28;20044;-71
2021/05/25 05:37:10;;;;;;;4.78;3.05;;;;;;;21.88;57.70;99956.81;5053159;28;20075;-73
2021/05/25 05:39:39;;;;;;;6.40;3.60;;;;;;;22.16;57.54;99951.88;5033426;28;20057;-73
2021/05/25 05:42:07;;;;;;;4.93;3.28;;;;;;;22.48;54.85;99960.94;5033551;28;20487;-73
2021/05/25 05:44:35;;;;;;;5.63;3.22;;;;;;;22.85;54.61;99961.13;5033476;28;20037;-74
2021/05/25 05:47:03;;;;;;;5.70;3.00;;;;;;;23.30;53.60;99972.25;5049518;28;20041;-74
2021/05/25 05:49:31;;;;;;;4.65;2.90;;;;;;;23.47;52.89;99965.66;5050382;28;20040;-71
2021/05/25 05:52:00;;;;;;;6.80;2.90;;;;;;;23.31;52.47;99961.19;5053491;28;20044;-72
2021/05/25 05:54:28;;;;;;;7.95;3.50;;;;;;;23.46;52.09;99963.13;5052996;28;20044;-75
2021/05/25 05:56:55;;;;;;;6.40;3.20;;;;;;;23.46;51.42;99961.25;5053462;28;20045;-74
2021/05/25 05:59:23;;;;;;;6.10;3.47;;;;;;;23.65;51.16;99946.31;5052797;28;20041;-78
2021/05/25 06:01:51;;;;;;;6.65;3.40;;;;;;;23.95;51.36;99952.66;5053352;28;20053;-76
2021/05/25 06:04:19;;;;;;;5.32;2.90;;;;;;;23.69;52.22;99943.03;5053382;28;20049;-78
2021/05/25 06:06:48;;;;;;;5.90;3.10;;;;;;;24.44;49.11;99953.00;5043136;28;20080;-77
2021/05/25 06:09:17;;;;;;;6.30;2.97;;;;;;;24.48;49.11;99964.34;5050529;28;20048;-70
2021/05/25 06:11:51;;;;;;;6.60;3.20;;;;;;;24.18;49.09;99963.47;5052500;28;20486;-70
2021/05/25 06:14:21;;;;;;;5.32;2.88;;;;;;;24.47;48.83;99962.66;5052569;28;20405;-70
2021/05/25 06:16:48;;;;;;;6.75;2.78;;;;;;;24.45;46.82;99965.59;5052998;28;20151;-69
2021/05/25 06:19:16;;;;;;;3.60;2.33;;;;;;;24.79;46.67;99972.28;5053267;28;20398;-71
2021/05/25 06:21:44;;;;;;;9.38;2.92;;;;;;;24.93;46.78;99985.06;5052545;28;20036;-81
2021/05/25 06:24:13;;;;;;;7.10;2.95;;;;;;;24.67;48.50;99979.28;5053160;28;20086;-74
2021/05/25 06:26:42;;;;;;;4.82;2.60;;;;;;;24.45;48.26;99986.53;5052769;28;20490;-76
2021/05/25 06:29:11;;;;;;;5.05;2.70;;;;;;;23.40;51.17;99997.34;5051687;28;20107;-77
2021/05/25 06:31:39;;;;;;;5.55;2.80;;;;;;;23.94;52.16;99995.41;5052677;28;20051;-78
2021/05/25 06:34:07;;;;;;;5.25;2.78;;;;;;;23.44;51.59;99998.66;5052100;28;20051;-76
2021/05/25 06:36:35;;;;;;;4.97;2.75;;;;;;;23.98;51.90;100001.31;5052385;28;20501;-75
2021/05/25 06:39:05;;;;;;;6.43;2.63;;;;;;;24.18;50.98;100007.06;5052714;28;20123;-75
2021/05/25 06:41:35;;;;;;;4.63;2.70;;;;;;;23.66;51.05;100007.91;5052135;28;20041;-77
2021/05/25 06:44:05;;;;;;;5.40;2.80;;;;;;;23.58;50.08;100011.50;5052699;28;20041;-77
2021/05/25 06:46:33;;;;;;;7.63;2.83;;;;;;;23.54;50.72;100015.59;5053017;28;20332;-74
2021/05/25 06:49:01;;;;;;;3.80;2.47;;;;;;;22.80;52.52;100017.91;5052665;28;20057;-74
2021/05/25 06:51:29;;;;;;;7.70;3.10;;;;;;;23.35;50.79;100008.75;5052491;28;20041;-78
2021/05/25 06:53:57;;;;;;;6.18;2.63;;;;;;;23.21;52.33;100009.53;5052433;28;20110;-77
2021/05/25 06:56:25;;;;;;;6.60;2.53;;;;;;;23.53;51.48;100002.16;5051080;28;20045;-75
2021/05/25 06:58:52;;;;;;;4.22;2.80;;;;;;;23.06;55.84;100006.72;5052689;28;20049;-79
2021/05/25 07:01:21;;;;;;;5.13;3.03;;;;;;;22.21;55.77;100005.69;5052494;28;20045;-76
2021/05/25 07:03:51;;;;;;;6.85;3.15;;;;;;;22.10;55.17;100009.63;5052996;28;20049;-75
2021/05/25 07:06:19;;;;;;;6.88;3.13;;;;;;;22.03;57.12;100003.16;5052791;28;20041;-78
2021/05/25 07:08:47;;;;;;;5.07;2.92;;;;;;;21.59;59.87;100003.50;5055378;28;20041;-76
2021/05/25 07:11:18;;;;;;;6.22;2.92;;;;;;;21.74;59.30;99998.25;5058282;28;20144;-74
2021/05/25 07:13:46;;;;;;;4.57;2.70;;;;;;;21.56;58.93;100011.97;5057745;28;20098;-75
2021/05/25 07:16:14;;;;;;;5.63;2.92;;;;;;;21.58;57.27;100012.66;5053759;28;20045;-75
2021/05/25 07:18:44;;;;;;;5.82;2.85;;;;;;;21.34;59.70;100007.22;5052433;28;20525;-74
2021/05/25 07:21:12;;;;;;;5.55;2.97;;;;;;;20.73;61.40;100014.63;5052057;28;20095;-75
2021/05/25 07:23:40;;;;;;;6.15;2.70;;;;;;;21.09;62.36;100017.97;5052038;28;20129;-75
2021/05/25 07:26:08;;;;;;;5.70;2.67;;;;;;;20.62;62.10;100017.63;5055075;28;20053;-76
2021/05/25 07:28:36;;;;;;;5.55;3.30;;;;;;;20.28;62.61;100021.16;5056122;28;20371;-75
2021/05/25 07:31:04;;;;;;;4.65;2.70;;;;;;;20.49;63.76;100023.50;5056098;28;20045;-72
2021/05/25 07:33:32;;;;;;;5.93;2.78;;;;;;;20.89;61.86;100024.69;5055855;28;20079;-74
2021/05/25 07:36:02;;;;;;;6.07;3.17;;;;;;;20.46;63.04;100031.09;5054651;28;20086;-70
2021/05/25 07:38:30;;;;;;;5.25;3.15;;;;;;;20.29;64.47;100038.25;5056082;28;20053;-75
2021/05/25 07:40:58;;;;;;;5.03;3.10;;;;;;;20.32;63.92;100032.50;5056000;28;20041;-78
2021/05/25 07:43:26;;;;;;;6.43;3.25;;;;;;;20.62;59.93;100038.47;5055702;28;20057;-78
2021/05/25 07:45:54;;;;;;;4.80;3.15;;;;;;;20.04;64.10;100039.94;5055766;28;20048;-79
2021/05/25 07:48:23;;;;;;;7.72;3.22;;;;;;;19.32;65.62;100054.50;5055692;28;20382;-78
2021/05/25 07:50:51;;;;;;;5.78;3.00;;;;;;;19.17;67.35;100073.09;5054942;28;20444;-77
2021/05/25 07:53:20;;;;;;;5.18;3.20;;;;;;;18.98;67.29;100074.03;5055629;28;20124;-77
2021/05/25 07:55:48;;;;;;;6.47;3.20;;;;;;;18.90;66.39;100062.28;5055673;28;20053;-77
2021/05/25 07:58:16;;;;;;;9.57;3.50;;;;;;;18.93;65.34;100081.78;5055738;28;20067;-80
2021/05/25 08:00:45;;;;;;;5.63;2.95;;;;;;;19.03;65.88;100077.16;5054428;28;20439;-78
2021/05/25 08:03:13;;;;;;;8.88;3.85;;;;;;;18.98;65.05;100084.00;5055332;28;20051;-75
2021/05/25 08:05:41;;;;;;;6.15;3.35;;;;;;;19.26;64.97;100084.84;5055411;28;20444;-78
2021/05/25 08:08:10;;;;;;;7.78;3.97;;;;;;;19.16;64.46;100079.50;5055492;28;20116;-77
2021/05/25 08:10:39;;;;;;;8.93;4.20;;;;;;;19.07;65.46;100083.09;5059432;28;20385;-77
2021/05/25 08:13:07;;;;;;;5.75;3.80;;;;;;;19.30;64.51;100087.13;5054949;28;20073;-73
2021/05/25 08:15:36;;;;;;;5.97;3.70;;;;;;;19.00;65.02;100092.81;5053898;28;20493;-75
2021/05/25 08:18:10;;;;;;;6.38;3.67;;;;;;;19.03;64.67;100101.50;5055431;28;20033;-79
2021/05/25 08:20:38;;;;;;;6.97;3.97;;;;;;;19.07;64.90;100102.88;5055411;28;20037;-78
2021/05/25 08:23:26;;;;;;;6.03;3.53;;;;;;;19.09;65.30;100113.53;5055153;28;20045;-78
2021/05/25 08:25:55;;;;;;;5.40;3.58;;;;;;;18.62;66.55;100128.91;5055132;28;20053;-77
2021/05/25 08:28:23;;;;;;;9.15;4.40;;;;;;;18.36;68.63;100120.63;5054602;28;20041;-75
2021/05/25 08:30:52;;;;;;;5.95;3.90;;;;;;;18.04;69.82;100116.38;5055195;28;20407;-76
2021/05/25 08:33:20;;;;;;;10.48;4.20;;;;;;;18.21;69.18;100133.69;5055020;28;20037;-73
2021/05/25 08:35:49;;;;;;;7.57;3.95;;;;;;;18.34;69.58;100133.41;5054354;28;20064;-73
2021/05/25 08:38:22;;;;;;;9.05;4.05;;;;;;;17.72;71.06;100140.94;5054892;28;20495;-74
2021/05/25 08:40:52;;;;;;;7.65;4.10;;;;;;;17.64;71.94;100146.16;5053891;28;20087;-71
2021/05/25 08:43:24;;;;;;;7.57;4.40;;;;;;;17.66;71.64;100153.13;5052657;28;20060;-70
2021/05/25 08:45:52;;;;;;;9.07;4.85;;;;;;;17.42;71.80;100160.75;5054643;28;20049;-74
2021/05/25 08:48:23;;;;;;;8.73;5.05;;;;;;;17.38;71.46;100168.25;5054458;28;20044;-78
2021/05/25 08:50:54;;;;;;;9.75;5.15;;;;;;;17.06;72.67;100165.72;5053842;28;20051;-77
2021/05/25 08:53:22;;;;;;;9.13;5.00;;;;;;;17.11;73.15;100165.31;5054590;28;20068;-76
2021/05/25 08:55:51;;;;;;;7.55;5.13;;;;;;;17.15;73.09;100167.59;5054546;28;20045;-78
2021/05/25 08:58:20;;;;;;;6.43;4.53;;;;;;;17.35;71.70;100173.06;5054589;28;20071;-78
2021/05/25 09:00:51;;;;;;;7.97;4.32;;;;;;;17.03;73.10;100170.53;5054678;28;20045;-73
2021/05/25 09:03:20;;;;;;;6.38;4.35;;;;;;;17.50;71.47;100171.69;5054172;28;20122;-76
2021/05/25 09:05:51;;;;;;;5.68;4.18;;;;;;;17.24;71.95;100175.88;5054027;28;20491;-77
2021/05/25 09:08:21;;;;;;;8.38;4.03;;;;;;;16.97;72.53;100190.78;5054530;28;20041;-78
2021/05/25 09:10:51;;;;;;;8.13;3.92;;;;;;;16.87;73.20;100189.88;5054154;28;20052;-80
2021/05/25 09:13:20;;;;;;;4.75;3.40;;;;;;;16.58;73.77;100195.91;5053974;28;20048;-78
2021/05/25 09:15:51;;;;;;;6.85;3.88;;;;;;;16.49;74.01;100202.09;5054161;28;20091;-79
2021/05/25 09:18:20;;;;;;;6.20;3.75;;;;;;;16.72;73.75;100194.78;5054023;28;20041;-78
2021/05/25 09:20:51;;;;;;;6.05;3.35;;;;;;;16.92;72.39;100197.56;5054569;28;20459;-75
2021/05/25 09:23:21;;;;;;;7.07;3.47;;;;;;;16.89;72.18;100198.72;5053682;28;20431;-78
2021/05/25 09:25:57;;;;;;;6.10;3.50;;;;;;;17.11;71.65;100194.97;5054239;28;20049;-76
2021/05/25 09:28:26;;;;;;;5.55;3.10;;;;;;;17.09;71.28;100203.19;5053719;28;20466;-73
2021/05/25 09:30:56;;;;;;;3.95;2.70;;;;;;;16.88;72.96;100196.97;5054090;28;20045;-74
2021/05/25 09:33:27;;;;;;;5.38;3.28;;;;;;;16.98;72.99;100200.56;5052861;28;20068;-75
2021/05/25 09:35:56;;;;;;;5.90;3.08;;;;;;;17.10;71.62;100207.59;5053434;28;20044;-76
2021/05/25 09:38:27;;;;;;;5.18;3.20;;;;;;;16.93;72.40;100204.66;5053856;28;20049;-76
2021/05/25 09:41:00;;;;;;;6.60;3.67;;;;;;;16.87;72.56;100206.03;5053414;28;20547;-75
2021/05/25 09:43:29;;;;;;;8.80;3.07;;;;;;;16.91;71.64;100188.66;5053471;28;20061;-73
2021/05/25 09:46:00;;;;;;;6.22;2.80;;;;;;;17.28;72.47;100204.28;5053355;28;20072;-75
2021/05/25 09:48:31;;;;;;;5.47;3.10;;;;;;;17.40;70.52;100211.25;5052803;28;20041;-74
2021/05/25 09:51:00;;;;;;;4.93;2.60;;;;;;;17.61;69.70;100209.31;5053531;28;20041;-76
2021/05/25 09:53:31;;;;;;;5.78;2.60;;;;;;;17.58;68.60;100204.22;5053152;28;20037;-75
2021/05/25 09:56:01;;;;;;;5.32;2.35;;;;;;;17.67;68.85;100203.38;5053332;28;20561;-76
2021/05/25 09:58:40;;;;;;;4.25;2.42;;;;;;;18.12;67.90;100202.88;5053133;28;20052;-74
2021/05/25 10:01:10;;;;;;;4.07;2.50;;;;;;;17.54;69.41;100191.97;5052055;28;20575;-73
2021/05/25 10:03:44;;;;;;;6.32;3.08;;;;;;;17.62;68.79;100202.94;5052881;28;20521;-75
2021/05/25 10:06:13;;;;;;;4.45;2.53;;;;;;;17.57;68.44;100202.50;5053003;28;20763;-76
2021/05/25 10:08:44;;;;;;;4.13;2.40;;;;;;;17.50;68.58;100209.44;5052882;28;20048;-77
2021/05/25 10:11:16;;;;;;;4.00;2.67;;;;;;;17.35;69.54;100211.66;5053356;28;20052;-75
2021/05/25 10:13:44;;;;;;;3.88;2.40;;;;;;;17.32;69.91;100219.16;5053312;28;20099;-77
2021/05/25 10:16:23;;;;;;;4.40;2.40;;;;;;;17.03;70.92;100216.34;5053622;28;20037;-79
2021/05/25 10:19:02;;;;;;;3.80;2.13;;;;;;;16.69;71.77;100226.50;5053026;28;20052;-80
2021/05/25 10:21:30;;;;;;;4.30;2.42;;;;;;;16.85;71.18;100227.72;5052701;28;20052;-78
2021/05/25 10:24:01;;;;;;;3.42;2.22;;;;;;;16.71;70.43;100232.63;5052805;28;20508;-76
2021/05/25 10:26:30;;;;;;;4.63;2.30;;;;;;;16.78;70.21;100223.00;5052992;28;20099;-74
2021/05/25 10:29:02;;;;;;;3.78;2.20;;;;;;;17.07;69.99;100207.00;5052953;28;20044;-83
2021/05/25 10:31:33;;;;;;;9.25;2.15;;;;;;;17.19;68.38;100211.31;5052908;28;20048;-81
2021/05/25 10:34:19;;;;;;;3.42;1.92;;;;;;;17.34;66.79;100206.41;5053001;28;20041;-80
2021/05/25 10:36:49;;;;;;;5.65;2.10;;;;;;;17.29;66.63;100205.97;5053100;28;20052;-76
2021/05/25 10:39:35;;;;;;;4.88;1.73;;;;;;;17.16;66.64;100203.50;5053224;28;20501;-79
2021/05/25 10:42:24;;;;;;;5.68;1.95;;;;;;;17.66;64.66;100214.28;5054129;28;20148;-74
2021/05/25 10:44:54;;;;;;;4.80;1.70;;;;;;;18.08;64.30;100209.56;5058908;28;20466;-75
2021/05/25 10:47:26;;;;;;;4.35;1.60;;;;;;;18.08;63.06;100214.97;5052661;28;20055;-75
2021/05/25 10:49:57;;;;;;;4.20;1.55;;;;;;;17.94;62.81;100224.31;5052446;28;20047;-76
2021/05/25 10:52:25;;;;;;;2.50;1.15;;;;;;;17.39;64.29;100217.66;5052710;28;20041;-73
2021/05/25 10:54:57;;;;;;;3.05;1.67;;;;;;;17.39;64.59;100220.34;5052643;28;20132;-79
2021/05/25 10:57:51;;;;;;;4.78;1.73;;;;;;;17.52;64.29;100231.72;5051832;28;20513;-77
2021/05/25 11:00:34;;;;;;;3.72;1.65;;;;;;;17.40;65.07;100230.97;5055856;28;20049;-79
2021/05/25 11:03:19;;;;;;;3.03;1.55;;;;;;;17.40;64.16;100230.13;5056660;28;20224;-72
2021/05/25 11:05:48;;;;;;;3.92;1.65;;;;;;;17.08;65.23;100241.91;5056150;28;20720;-75
2021/05/25 11:08:33;;;;;;;4.93;1.50;;;;;;;17.35;65.65;100237.75;5056539;28;20048;-73
2021/05/25 11:11:18;;;;;;;2.88;1.60;;;;;;;17.35;64.41;100235.06;5055307;28;20049;-77
2021/05/25 11:13:51;;;;;;;3.50;1.30;;;;;;;17.23;64.62;100238.84;5055398;28;20062;-78
2021/05/25 11:16:31;;;;;;;4.38;1.30;;;;;;;17.15;65.31;100243.06;5054888;28;20123;-76
2021/05/25 11:19:21;;;;;;;2.80;1.55;;;;;;;17.52;64.29;100247.91;5055740;28;20056;-76
2021/05/25 11:22:16;;;;;;;5.05;1.70;;;;;;;17.81;64.51;100247.16;5055880;28;20052;-77
2021/05/25 11:24:53;;;;;;;3.83;1.70;;;;;;;17.42;64.16;100260.50;5056318;28;20041;-77
2021/05/25 11:27:29;;;;;;;8.50;1.67;;;;;;;17.58;64.26;100250.06;5052908;28;20061;-79
2021/05/25 11:30:00;;;;;;;2.30;1.27;;;;;;;17.52;64.47;100258.69;5049700;28;20045;-75
2021/05/25 11:32:31;;;;;;;3.25;1.65;;;;;;;17.63;64.95;100268.53;5040121;28;20081;-76
2021/05/25 11:35:04;;;;;;;3.47;1.40;;;;;;;17.31;65.13;100253.38;5038795;28;20053;-75
2021/05/25 11:37:34;;;;;;;4.18;1.80;;;;;;;17.19;65.26;100270.63;5055077;28;20045;-84
2021/05/25 11:40:05;;;;;;;2.80;1.50;;;;;;;17.32;64.68;100260.47;5056328;28;20048;-76
2021/05/25 11:42:33;;;;;;;3.78;1.60;;;;;;;17.49;64.80;100272.47;5054897;28;20048;-76
2021/05/25 11:45:03;;;;;;;2.47;1.30;;;;;;;17.46;64.40;100254.69;5041936;28;20120;-74